createdAt,value
2017-07-26T00:01:24.098Z,17.30
2017-07-26T00:03:52.183Z,17.30
2017-07-26T00:06:20.275Z,17.30
2017-07-26T00:08:48.331Z,17.30
2017-07-26T00:11:16.419Z,17.30
2017-07-26T00:13:44.654Z,17.30
2017-07-26T00:16:12.743Z,17.30
2017-07-26T00:18:40.826Z,17.30
2017-07-26T00:21:08.868Z,17.30
2017-07-26T00:23:36.950Z,17.20
2017-07-26T00:26:05.006Z,17.20
2017-07-26T00:28:33.114Z,17.20
2017-07-26T00:31:01.156Z,17.20
2017-07-26T00:33:29.238Z,17.30
2017-07-26T00:35:57.293Z,17.20
2017-07-26T00:38:25.361Z,17.10
2017-07-26T00:40:53.430Z,17.20
2017-07-26T00:43:21.499Z,17.30
2017-07-26T00:45:49.571Z,17.40
2017-07-26T00:48:17.659Z,17.30
2017-07-26T00:50:45.722Z,17.20
2017-07-26T00:53:13.812Z,17.20
2017-07-26T00:55:41.869Z,17.30
2017-07-26T00:58:09.931Z,17.40
2017-07-26T01:00:38.009Z,17.40
2017-07-26T01:03:06.070Z,17.40
2017-07-26T01:05:34.162Z,17.30
2017-07-26T01:08:02.250Z,17.30
2017-07-26T01:10:31.092Z,17.20
2017-07-26T01:12:59.171Z,17.20
2017-07-26T01:15:27.281Z,17.30
2017-07-26T01:17:55.335Z,17.20
2017-07-26T01:20:23.396Z,17.20
2017-07-26T01:22:51.483Z,17.20
2017-07-26T01:25:19.551Z,17.30
2017-07-26T01:27:47.644Z,17.30
2017-07-26T01:30:15.694Z,17.20
2017-07-26T01:32:43.766Z,17.20
2017-07-26T01:35:11.843Z,17.20
2017-07-26T01:37:39.914Z,17.10
2017-07-26T01:40:07.984Z,17.10
2017-07-26T01:42:36.066Z,17.00
2017-07-26T01:45:04.134Z,17.10
2017-07-26T01:47:32.200Z,17.10
2017-07-26T01:50:00.268Z,17.10
2017-07-26T01:52:28.338Z,17.10
2017-07-26T01:54:56.411Z,17.20
2017-07-26T01:57:24.491Z,17.30
2017-07-26T01:59:52.563Z,17.40
2017-07-26T02:02:20.627Z,17.40
2017-07-26T02:04:48.694Z,17.50
2017-07-26T02:07:16.767Z,17.50
2017-07-26T02:09:44.834Z,17.50
2017-07-26T02:12:12.931Z,17.50
2017-07-26T02:14:40.994Z,17.40
2017-07-26T02:17:09.053Z,17.40
2017-07-26T02:19:37.128Z,17.40
2017-07-26T02:22:05.199Z,17.50
2017-07-26T02:24:33.284Z,17.40
2017-07-26T02:27:01.349Z,17.40
2017-07-26T02:29:29.435Z,17.40
2017-07-26T02:31:57.502Z,17.40
2017-07-26T02:34:27.047Z,17.40
2017-07-26T02:36:55.123Z,17.30
2017-07-26T02:39:23.174Z,17.20
2017-07-26T02:41:52.003Z,17.50
2017-07-26T02:44:20.099Z,17.40
2017-07-26T02:46:48.178Z,17.50
2017-07-26T02:49:16.242Z,17.50
2017-07-26T02:51:44.312Z,17.60
2017-07-26T02:54:12.389Z,17.60
2017-07-26T02:56:40.459Z,17.60
2017-07-26T02:59:08.514Z,17.60
2017-07-26T03:01:36.586Z,17.60
2017-07-26T03:04:04.669Z,17.60
2017-07-26T03:06:32.741Z,17.50
2017-07-26T03:09:00.788Z,17.50
2017-07-26T03:11:28.880Z,17.60
2017-07-26T03:13:56.942Z,17.70
2017-07-26T03:16:25.006Z,17.70
2017-07-26T03:18:53.086Z,17.60
2017-07-26T03:21:21.163Z,17.60
2017-07-26T03:23:49.238Z,17.60
2017-07-26T03:26:17.308Z,17.60
2017-07-26T03:28:45.379Z,17.70
2017-07-26T03:31:13.451Z,17.60
2017-07-26T03:33:41.590Z,17.80
2017-07-26T03:36:09.723Z,17.80
2017-07-26T03:38:37.798Z,17.80
2017-07-26T03:41:05.874Z,17.70
2017-07-26T03:43:33.934Z,17.70
2017-07-26T03:46:02.006Z,17.60
2017-07-26T03:48:30.068Z,17.60
2017-07-26T03:50:58.131Z,17.60
2017-07-26T03:53:26.219Z,17.60
2017-07-26T03:55:54.290Z,17.60
2017-07-26T03:58:22.359Z,17.50
2017-07-26T04:00:50.438Z,17.50
2017-07-26T04:03:18.515Z,17.60
2017-07-26T04:05:46.626Z,17.70
2017-07-26T04:08:14.684Z,17.80
2017-07-26T04:10:42.763Z,17.90
2017-07-26T04:13:10.834Z,17.90
2017-07-26T04:15:38.907Z,18.00
2017-07-26T04:18:06.979Z,18.00
2017-07-26T04:20:35.054Z,18.10
2017-07-26T04:23:03.119Z,18.10
2017-07-26T04:25:31.191Z,18.10
2017-07-26T04:27:59.263Z,18.10
2017-07-26T04:30:27.323Z,18.10
2017-07-26T04:32:55.384Z,18.20
2017-07-26T04:35:23.455Z,18.10
2017-07-26T04:37:51.527Z,18.10
2017-07-26T04:40:19.602Z,18.00
2017-07-26T04:42:47.686Z,17.90
2017-07-26T04:45:15.762Z,17.80
2017-07-26T04:47:43.843Z,17.90
2017-07-26T04:50:11.943Z,17.80
2017-07-26T04:52:40.003Z,17.80
2017-07-26T04:55:08.074Z,17.90
2017-07-26T04:57:37.031Z,17.90
2017-07-26T05:00:05.091Z,17.90
2017-07-26T05:02:33.176Z,18.00
2017-07-26T05:05:01.591Z,18.10
2017-07-26T05:07:29.647Z,18.20
2017-07-26T05:09:57.712Z,18.20
2017-07-26T05:12:25.814Z,18.20
2017-07-26T05:14:53.870Z,18.30
2017-07-26T05:17:21.930Z,18.20
2017-07-26T05:19:50.016Z,18.10
2017-07-26T05:22:18.083Z,18.10
2017-07-26T05:24:46.138Z,18.00
2017-07-26T05:27:14.219Z,18.10
2017-07-26T05:29:42.286Z,18.10
2017-07-26T05:32:10.367Z,18.00
2017-07-26T05:34:38.423Z,18.00
2017-07-26T05:37:06.477Z,18.00
2017-07-26T05:39:34.556Z,18.00
2017-07-26T05:42:02.623Z,18.10
2017-07-26T05:44:30.684Z,18.10
2017-07-26T05:46:58.766Z,18.10
2017-07-26T05:49:26.835Z,18.20
2017-07-26T05:51:54.934Z,18.30
2017-07-26T05:54:23.006Z,18.30
2017-07-26T05:56:51.070Z,18.30
2017-07-26T05:59:19.153Z,18.40
2017-07-26T06:01:47.202Z,18.50
2017-07-26T06:04:15.251Z,18.60
2017-07-26T06:06:43.345Z,18.50
2017-07-26T06:09:11.401Z,18.50
2017-07-26T06:11:39.463Z,18.50
2017-07-26T06:14:07.535Z,18.50
2017-07-26T06:16:35.608Z,18.60
2017-07-26T06:19:03.670Z,18.70
2017-07-26T06:21:31.739Z,18.70
2017-07-26T06:23:59.829Z,18.80
2017-07-26T06:26:27.887Z,18.90
2017-07-26T06:28:55.958Z,19.00
2017-07-26T06:31:24.030Z,19.10
2017-07-26T06:33:52.085Z,19.30
2017-07-26T06:36:20.163Z,19.50
2017-07-26T06:38:48.218Z,19.70
2017-07-26T06:41:16.294Z,20.00
2017-07-26T06:43:44.371Z,20.10
2017-07-26T06:46:12.442Z,20.00
2017-07-26T06:48:40.529Z,19.90
2017-07-26T06:51:08.604Z,20.00
2017-07-26T06:53:36.669Z,20.00
2017-07-26T06:56:04.738Z,19.90
2017-07-26T06:58:32.800Z,19.70
2017-07-26T07:01:00.883Z,19.80
2017-07-26T07:03:28.958Z,20.00
2017-07-26T07:05:57.024Z,20.20
2017-07-26T07:08:25.112Z,20.40
2017-07-26T07:10:53.162Z,20.50
2017-07-26T07:13:21.230Z,20.60
2017-07-26T07:15:49.296Z,20.50
2017-07-26T07:18:17.373Z,20.60
2017-07-26T07:20:45.458Z,20.70
2017-07-26T07:23:13.523Z,20.70
2017-07-26T07:25:41.590Z,20.70
2017-07-26T07:28:09.667Z,20.50
2017-07-26T07:30:37.767Z,20.30
2017-07-26T07:33:05.858Z,20.10
2017-07-26T07:35:34.671Z,20.10
2017-07-26T07:38:02.753Z,20.00
2017-07-26T07:40:30.831Z,20.30
2017-07-26T07:42:58.894Z,20.70
2017-07-26T07:45:26.967Z,21.00
2017-07-26T07:47:55.042Z,20.90
2017-07-26T07:50:23.136Z,20.60
2017-07-26T07:52:51.192Z,20.50
2017-07-26T07:55:19.268Z,20.30
2017-07-26T07:57:47.320Z,20.00
2017-07-26T08:00:15.394Z,19.80
2017-07-26T08:02:43.463Z,19.70
2017-07-26T08:05:11.538Z,19.70
2017-07-26T08:07:39.622Z,19.70
2017-07-26T08:10:07.686Z,19.80
2017-07-26T08:12:35.754Z,20.10
2017-07-26T08:15:03.828Z,20.20
2017-07-26T08:17:31.915Z,20.40
2017-07-26T08:19:59.998Z,20.70
2017-07-26T08:22:28.247Z,21.00
2017-07-26T08:24:56.291Z,21.40
2017-07-26T08:27:24.356Z,21.60
2017-07-26T08:29:53.178Z,21.70
2017-07-26T08:32:21.267Z,21.60
2017-07-26T08:34:49.331Z,21.80
2017-07-26T08:37:17.383Z,21.80
2017-07-26T08:39:46.244Z,21.30
2017-07-26T08:42:18.058Z,21.30
2017-07-26T08:44:46.163Z,21.20
2017-07-26T08:47:14.225Z,21.30
2017-07-26T08:49:42.291Z,21.50
2017-07-26T08:52:10.373Z,21.60
2017-07-26T08:54:38.615Z,21.50
2017-07-26T08:57:06.699Z,21.60
2017-07-26T08:59:34.766Z,21.70
2017-07-26T09:02:02.830Z,21.80
2017-07-26T09:04:30.915Z,22.10
2017-07-26T09:06:59.001Z,22.50
2017-07-26T09:09:27.051Z,22.80
2017-07-26T09:11:55.109Z,22.80
2017-07-26T09:14:23.178Z,22.40
2017-07-26T09:16:51.263Z,22.20
2017-07-26T09:19:19.356Z,22.10
2017-07-26T09:21:47.418Z,22.00
2017-07-26T09:24:15.479Z,22.20
2017-07-26T09:26:43.549Z,22.60
2017-07-26T09:29:11.587Z,23.50
2017-07-26T09:31:40.424Z,25.40
2017-07-26T09:34:08.497Z,25.30
2017-07-26T09:36:36.550Z,24.90
2017-07-26T09:39:04.626Z,24.60
2017-07-26T09:41:33.463Z,27.60
2017-07-26T09:44:01.530Z,27.50
2017-07-26T09:46:29.590Z,27.20
2017-07-26T09:48:57.791Z,26.60
2017-07-26T09:51:25.874Z,25.90
2017-07-26T09:53:53.960Z,27.30
2017-07-26T09:56:22.006Z,29.20
2017-07-26T09:58:50.065Z,31.60
2017-07-26T10:01:18.127Z,32.10
2017-07-26T10:03:46.211Z,31.40
2017-07-26T10:06:14.275Z,29.90
2017-07-26T10:08:42.330Z,28.80
2017-07-26T10:11:11.039Z,29.20
2017-07-26T10:13:39.106Z,30.20
2017-07-26T10:16:07.169Z,29.90
2017-07-26T10:18:35.241Z,28.20
2017-07-26T10:21:03.304Z,26.70
2017-07-26T10:23:31.372Z,25.50
2017-07-26T10:25:59.467Z,25.30
2017-07-26T10:28:27.526Z,27.40
2017-07-26T10:30:55.592Z,29.90
2017-07-26T10:33:23.643Z,31.70
2017-07-26T10:35:51.727Z,31.40
2017-07-26T10:38:19.783Z,31.20
2017-07-26T10:40:47.844Z,30.60
2017-07-26T10:43:15.924Z,29.50
2017-07-26T10:45:43.986Z,28.50
2017-07-26T10:48:12.031Z,27.80
2017-07-26T10:50:40.871Z,31.20
2017-07-26T10:53:09.759Z,31.10
2017-07-26T10:55:37.835Z,32.60
2017-07-26T10:58:05.895Z,34.40
2017-07-26T11:00:33.960Z,34.80
2017-07-26T11:03:02.040Z,32.90
2017-07-26T11:05:30.091Z,30.40
2017-07-26T11:07:58.176Z,30.70
2017-07-26T11:10:26.241Z,32.30
2017-07-26T11:12:54.301Z,32.20
2017-07-26T11:15:22.376Z,33.20
2017-07-26T11:17:50.459Z,35.20
2017-07-26T11:20:18.526Z,36.60
2017-07-26T11:22:46.595Z,35.00
2017-07-26T11:25:14.683Z,33.40
2017-07-26T11:27:42.738Z,33.90
2017-07-26T11:30:10.795Z,35.70
2017-07-26T11:32:38.867Z,36.70
2017-07-26T11:35:06.935Z,38.30
2017-07-26T11:37:34.986Z,39.30
2017-07-26T11:40:03.855Z,37.50
2017-07-26T11:42:31.900Z,37.50
2017-07-26T11:44:59.953Z,37.50
2017-07-26T11:47:28.794Z,38.60
2017-07-26T11:49:56.847Z,38.50
2017-07-26T11:52:24.903Z,38.70
2017-07-26T11:54:52.999Z,38.30
2017-07-26T11:57:21.052Z,37.30
2017-07-26T11:59:49.110Z,34.70
2017-07-26T12:02:17.196Z,32.80
2017-07-26T12:04:45.262Z,31.00
2017-07-26T12:07:13.308Z,29.20
2017-07-26T12:09:42.143Z,27.20
2017-07-26T12:12:10.219Z,27.20
2017-07-26T12:14:38.283Z,26.30
2017-07-26T12:17:06.363Z,25.90
2017-07-26T12:19:34.407Z,25.30
2017-07-26T12:22:02.480Z,25.00
2017-07-26T12:24:30.553Z,25.00
2017-07-26T12:26:58.615Z,25.00
2017-07-26T12:29:26.694Z,25.10
2017-07-26T12:31:54.760Z,24.90
2017-07-26T12:34:22.834Z,24.70
2017-07-26T12:36:50.883Z,24.60
2017-07-26T12:39:19.718Z,24.40
2017-07-26T12:41:47.762Z,24.30
2017-07-26T12:44:15.807Z,24.70
2017-07-26T12:46:44.642Z,24.90
2017-07-26T12:49:12.707Z,24.90
2017-07-26T12:51:40.794Z,25.20
2017-07-26T12:54:08.838Z,25.00
2017-07-26T12:56:37.767Z,24.70
2017-07-26T12:59:05.853Z,24.70
2017-07-26T13:01:33.919Z,24.80
2017-07-26T13:04:01.999Z,24.90
2017-07-26T13:06:30.066Z,25.10
2017-07-26T13:08:58.200Z,25.10
2017-07-26T13:11:26.268Z,25.10
2017-07-26T13:13:54.336Z,25.10
2017-07-26T13:16:22.413Z,25.10
2017-07-26T13:18:50.471Z,24.90
2017-07-26T13:21:18.532Z,24.70
2017-07-26T13:23:46.607Z,24.50
2017-07-26T13:26:15.417Z,24.70
2017-07-26T13:28:43.495Z,24.60
2017-07-26T13:31:11.554Z,24.90
2017-07-26T13:33:39.626Z,25.20
2017-07-26T13:36:07.743Z,25.20
2017-07-26T13:38:35.785Z,25.20
2017-07-26T13:41:03.877Z,25.00
2017-07-26T13:43:31.944Z,24.90
2017-07-26T13:45:59.998Z,24.70
2017-07-26T13:48:28.040Z,24.60
2017-07-26T13:50:56.124Z,24.70
2017-07-26T13:53:24.186Z,24.70
2017-07-26T13:55:52.241Z,24.70
2017-07-26T13:58:21.092Z,24.90
2017-07-26T14:00:49.150Z,24.80
2017-07-26T14:03:17.207Z,25.10
2017-07-26T14:05:45.270Z,25.30
2017-07-26T14:08:13.347Z,25.20
2017-07-26T14:10:41.408Z,25.20
2017-07-26T14:13:09.518Z,25.20
2017-07-26T14:15:37.563Z,25.50
2017-07-26T14:18:05.613Z,25.80
2017-07-26T14:20:33.687Z,26.10
2017-07-26T14:23:01.761Z,26.10
2017-07-26T14:25:29.823Z,25.90
2017-07-26T14:27:57.894Z,25.70
2017-07-26T14:30:26.007Z,25.60
2017-07-26T14:32:54.042Z,25.40
2017-07-26T14:35:22.104Z,25.30
2017-07-26T14:37:50.178Z,25.20
2017-07-26T14:40:18.232Z,25.10
2017-07-26T14:42:46.287Z,25.10
2017-07-26T14:45:14.354Z,25.00
2017-07-26T14:47:43.195Z,25.00
2017-07-26T14:50:11.293Z,24.90
2017-07-26T14:52:39.363Z,25.00
2017-07-26T14:55:07.439Z,25.00
2017-07-26T14:57:35.507Z,25.00
2017-07-26T15:00:03.575Z,25.00
2017-07-26T15:02:31.627Z,25.10
2017-07-26T15:04:59.692Z,25.10
2017-07-26T15:07:27.787Z,25.30
2017-07-26T15:09:55.856Z,25.50
2017-07-26T15:12:23.903Z,25.40
2017-07-26T15:14:51.965Z,25.30
2017-07-26T15:17:20.023Z,25.20
2017-07-26T15:19:48.104Z,25.20
2017-07-26T15:22:16.171Z,25.10
2017-07-26T15:24:44.239Z,24.90
2017-07-26T15:27:12.317Z,24.80
2017-07-26T15:29:40.384Z,24.60
2017-07-26T15:32:08.443Z,24.60
2017-07-26T15:34:36.514Z,24.20
2017-07-26T15:37:04.579Z,24.00
2017-07-26T15:39:32.670Z,23.90
2017-07-26T15:42:00.725Z,24.10
2017-07-26T15:44:28.769Z,24.30
2017-07-26T15:46:56.838Z,24.30
2017-07-26T15:49:24.899Z,24.20
2017-07-26T15:51:53.731Z,24.20
2017-07-26T15:54:21.810Z,24.10
2017-07-26T15:56:49.889Z,24.10
2017-07-26T15:59:17.950Z,24.20
2017-07-26T16:01:46.011Z,24.30
2017-07-26T16:04:14.078Z,24.40
2017-07-26T16:06:42.123Z,24.60
2017-07-26T16:09:10.187Z,24.60
2017-07-26T16:11:38.251Z,24.60
2017-07-26T16:14:06.310Z,24.50
2017-07-26T16:16:34.378Z,24.40
2017-07-26T16:19:02.456Z,24.60
2017-07-26T16:21:30.526Z,24.70
2017-07-26T16:23:58.603Z,24.60
2017-07-26T16:26:26.675Z,24.40
2017-07-26T16:28:55.559Z,24.40
2017-07-26T16:31:23.613Z,24.40
2017-07-26T16:33:51.675Z,24.50
2017-07-26T16:36:19.739Z,24.40
2017-07-26T16:38:47.807Z,24.30
2017-07-26T16:41:15.855Z,24.30
2017-07-26T16:43:43.955Z,24.20
2017-07-26T16:46:12.782Z,24.00
2017-07-26T16:48:40.842Z,24.00
2017-07-26T16:51:08.923Z,23.90
2017-07-26T16:53:36.999Z,23.70
2017-07-26T16:56:05.053Z,23.70
2017-07-26T16:58:33.126Z,23.80
2017-07-26T17:01:01.211Z,23.80
2017-07-26T17:03:29.274Z,23.90
2017-07-26T17:05:57.345Z,23.80
2017-07-26T17:08:25.410Z,23.80
2017-07-26T17:10:53.480Z,23.90
2017-07-26T17:13:21.569Z,23.80
2017-07-26T17:15:49.607Z,23.80
2017-07-26T17:18:18.433Z,23.80
2017-07-26T17:20:46.482Z,23.70
2017-07-26T17:23:14.570Z,23.80
2017-07-26T17:25:42.663Z,23.70
2017-07-26T17:28:10.722Z,23.70
2017-07-26T17:30:38.810Z,23.80
2017-07-26T17:33:06.870Z,23.70
2017-07-26T17:38:09.412Z,23.50
2017-07-26T17:40:38.278Z,23.30
2017-07-26T17:43:06.319Z,23.20
2017-07-26T17:45:34.391Z,23.20
2017-07-26T17:48:02.478Z,23.10
2017-07-26T17:50:30.540Z,23.10
2017-07-26T17:52:58.611Z,22.90
2017-07-26T17:55:26.700Z,22.90
2017-07-26T17:57:54.758Z,23.00
2017-07-26T18:00:22.807Z,23.00
2017-07-26T18:02:50.879Z,23.00
2017-07-26T18:05:18.944Z,23.00
2017-07-26T18:07:47.012Z,23.00
2017-07-26T18:10:15.073Z,23.00
2017-07-26T18:12:43.126Z,23.10
2017-07-26T18:15:11.228Z,23.00
2017-07-26T18:17:39.291Z,23.10
2017-07-26T18:20:07.356Z,23.00
2017-07-26T18:22:35.439Z,23.10
2017-07-26T18:25:03.503Z,23.10
2017-07-26T18:27:31.632Z,23.00
2017-07-26T18:30:00.461Z,23.00
2017-07-26T18:32:28.529Z,23.00
2017-07-26T18:34:56.644Z,23.00
2017-07-26T18:37:24.702Z,23.00
2017-07-26T18:39:52.763Z,23.00
2017-07-26T18:42:20.832Z,23.00
2017-07-26T18:44:49.630Z,23.00
2017-07-26T18:47:17.677Z,22.90
2017-07-26T18:49:45.744Z,22.90
2017-07-26T18:52:14.586Z,22.80
2017-07-26T18:54:42.646Z,22.70
2017-07-26T18:57:10.719Z,22.70
2017-07-26T18:59:38.771Z,22.60
2017-07-26T19:02:06.811Z,22.60
2017-07-26T19:04:35.664Z,22.50
2017-07-26T19:07:03.728Z,22.50
2017-07-26T19:09:32.339Z,22.50
2017-07-26T19:12:00.427Z,22.40
2017-07-26T19:14:28.496Z,22.30
2017-07-26T19:16:56.570Z,22.30
2017-07-26T19:19:25.412Z,22.30
2017-07-26T19:21:53.467Z,22.20
2017-07-26T19:24:21.560Z,22.30
2017-07-26T19:26:49.619Z,22.30
2017-07-26T19:29:17.675Z,22.20
2017-07-26T19:31:45.763Z,22.20
2017-07-26T19:34:13.854Z,22.20
2017-07-26T19:36:41.911Z,22.20
2017-07-26T19:39:10.066Z,22.10
2017-07-26T19:41:38.874Z,21.90
2017-07-26T19:44:06.937Z,21.90
2017-07-26T19:46:34.990Z,21.80
2017-07-26T19:49:03.082Z,21.80
2017-07-26T19:51:31.163Z,21.70
2017-07-26T19:54:00.002Z,21.60
2017-07-26T19:56:28.059Z,21.50
2017-07-26T19:58:56.139Z,21.50
2017-07-26T20:01:24.212Z,21.50
2017-07-26T20:03:52.286Z,21.40
2017-07-26T20:06:20.359Z,21.40
2017-07-26T20:08:48.465Z,21.40
2017-07-26T20:11:16.537Z,21.40
2017-07-26T20:13:44.653Z,21.40
2017-07-26T20:16:12.734Z,21.40
2017-07-26T20:18:40.805Z,21.50
2017-07-26T20:21:08.851Z,21.40
2017-07-26T20:23:36.897Z,21.40
2017-07-26T20:26:04.976Z,21.40
2017-07-26T20:28:33.839Z,21.30
2017-07-26T20:31:01.918Z,21.30
2017-07-26T20:33:29.978Z,21.30
2017-07-26T20:35:58.062Z,21.30
2017-07-26T20:38:26.210Z,21.20
2017-07-26T20:40:54.268Z,21.30
2017-07-26T20:43:22.356Z,21.30
2017-07-26T20:45:50.429Z,21.30
2017-07-26T20:48:18.497Z,21.20
2017-07-26T20:50:46.578Z,21.20
2017-07-26T20:53:14.665Z,21.20
2017-07-26T20:55:42.741Z,21.20
2017-07-26T20:58:10.806Z,21.10
2017-07-26T21:00:38.890Z,21.10
2017-07-26T21:03:06.969Z,21.00
2017-07-26T21:05:35.802Z,20.90
2017-07-26T21:08:03.882Z,20.90
2017-07-26T21:10:31.979Z,20.90
2017-07-26T21:13:00.035Z,20.90
2017-07-26T21:15:28.128Z,20.80
2017-07-26T21:17:56.184Z,20.80
2017-07-26T21:20:24.258Z,20.70
2017-07-26T21:22:52.331Z,20.70
2017-07-26T21:25:20.426Z,20.60
2017-07-26T21:27:48.475Z,20.60
2017-07-26T21:30:16.554Z,20.60
2017-07-26T21:32:44.607Z,20.60
2017-07-26T21:35:12.670Z,20.60
2017-07-26T21:37:40.725Z,20.60
2017-07-26T21:40:08.783Z,20.70
2017-07-26T21:42:36.853Z,20.70
2017-07-26T21:45:04.923Z,20.70
2017-07-26T21:47:32.989Z,20.70
2017-07-26T21:50:01.043Z,20.80
2017-07-26T21:52:29.898Z,20.90
2017-07-26T21:54:57.956Z,20.80
2017-07-26T21:57:26.009Z,20.90
2017-07-26T21:59:54.173Z,20.90
2017-07-26T22:02:23.079Z,21.10
2017-07-26T22:04:51.220Z,21.00
2017-07-26T22:07:20.039Z,21.10
2017-07-26T22:09:48.095Z,21.10
2017-07-26T22:12:16.168Z,21.20
2017-07-26T22:14:44.256Z,21.20
2017-07-26T22:17:12.323Z,21.10
2017-07-26T22:19:40.383Z,21.10
2017-07-26T22:22:08.465Z,21.10
2017-07-26T22:24:36.535Z,20.90
2017-07-26T22:27:04.588Z,20.80
2017-07-26T22:29:32.684Z,20.80
2017-07-26T22:32:00.755Z,20.70
2017-07-26T22:34:28.857Z,20.60
2017-07-26T22:36:56.929Z,20.60
2017-07-26T22:39:24.986Z,20.60
2017-07-26T22:41:53.054Z,20.70
2017-07-26T22:44:21.112Z,20.80
2017-07-26T22:46:49.178Z,20.70
2017-07-26T22:49:17.251Z,20.60
2017-07-26T22:51:45.335Z,20.60
2017-07-26T22:54:13.401Z,20.70
2017-07-26T22:56:41.450Z,20.80
2017-07-26T22:59:09.524Z,20.80
2017-07-26T23:01:37.571Z,20.80
2017-07-26T23:04:05.623Z,20.80
2017-07-26T23:06:33.692Z,20.80
2017-07-26T23:09:01.757Z,20.90
2017-07-26T23:11:30.584Z,20.70
2017-07-26T23:13:58.637Z,20.60
2017-07-26T23:16:26.710Z,20.60
2017-07-26T23:18:54.786Z,20.60
2017-07-26T23:21:22.835Z,20.60
2017-07-26T23:23:50.927Z,20.60
2017-07-26T23:26:18.998Z,20.70
2017-07-26T23:28:47.091Z,20.60
2017-07-26T23:31:15.136Z,20.60
2017-07-26T23:33:43.216Z,20.60
2017-07-26T23:36:11.261Z,20.60
2017-07-26T23:38:39.323Z,20.70
2017-07-26T23:41:08.151Z,20.80
2017-07-26T23:43:36.211Z,20.70
2017-07-26T23:46:04.295Z,20.90
2017-07-26T23:48:32.363Z,20.80
2017-07-26T23:51:00.418Z,20.80
2017-07-26T23:53:28.491Z,20.80
2017-07-26T23:55:56.556Z,20.80
2017-07-26T23:58:24.623Z,20.70
